Time;durP1;ratioP1;P1;durP2;ratioP2;P2;SDS_P1;SDS_P2;PMS_P1;PMS_P2;Temp;Humidity;BMP_temperature;BMP_pressure;BME280_temperature;BME280_humidity;BME280_pressure;Samples;Min_cycle;Max_cycle;Signal;HPM_P1;HPM_P2
2023/03/12 00:02:35;;;;;;;7.87;5.15;;;;;;;2.38;51.15;99256.19;7710010;32;39898;-85
2023/03/12 00:06:52;;;;;;;8.05;5.30;;;;;;;1.94;52.87;99270.91;7710563;32;39888;-85
2023/03/12 00:11:14;;;;;;;9.20;5.55;;;;;;;2.10;52.45;99270.25;7710205;32;39430;-85
2023/03/12 00:15:30;;;;;;;9.90;5.25;;;;;;;1.94;52.76;99262.84;7709636;32;37786;-86
2023/03/12 00:19:50;;;;;;;7.35;4.87;;;;;;;2.29;51.73;99268.31;7709619;32;39972;-86
2023/03/12 00:24:07;;;;;;;7.60;5.50;;;;;;;2.02;52.40;99265.22;7695981;32;39998;-85
2023/03/12 00:28:23;;;;;;;8.85;5.07;;;;;;;2.04;52.59;99273.88;7709790;32;38315;-86
2023/03/12 00:32:40;;;;;;;6.85;5.05;;;;;;;2.19;52.03;99270.75;7709729;32;36836;-85
2023/03/12 00:36:56;;;;;;;6.70;4.68;;;;;;;2.35;51.84;99277.34;7709250;32;39025;-85
2023/03/12 00:41:12;;;;;;;8.52;4.82;;;;;;;2.38;51.76;99276.87;7708902;32;40104;-86
2023/03/12 00:45:28;;;;;;;8.35;4.62;;;;;;;2.04;52.30;99287.31;7695245;32;37835;-86
2023/03/12 00:49:45;;;;;;;7.28;5.03;;;;;;;2.40;51.25;99286.38;7710550;32;37679;-86
2023/03/12 00:54:01;;;;;;;5.70;4.60;;;;;;;2.65;50.29;99293.44;7712893;32;40057;-85
2023/03/12 00:58:17;;;;;;;6.95;4.85;;;;;;;2.60;50.33;99296.84;7712662;32;40802;-86
2023/03/12 01:02:33;;;;;;;6.85;4.80;;;;;;;2.46;50.91;99290.00;7712373;32;38306;-85
2023/03/12 01:06:49;;;;;;;6.82;4.70;;;;;;;2.19;51.74;99292.25;7712966;32;36850;-84
2023/03/12 01:11:06;;;;;;;6.75;5.32;;;;;;;2.22;52.09;99289.12;7698654;32;39244;-85
2023/03/12 01:15:22;;;;;;;8.15;5.22;;;;;;;1.52;54.13;99295.84;7698238;32;41005;-85
2023/03/12 01:19:38;;;;;;;7.75;5.07;;;;;;;1.77;53.47;99298.41;7698372;32;38733;-87
2023/03/12 01:23:55;;;;;;;7.20;4.85;;;;;;;1.65;53.36;99300.22;7706343;32;36825;-86
2023/03/12 01:28:11;;;;;;;8.85;5.35;;;;;;;2.04;52.15;99292.69;7698765;32;39018;-86
2023/03/12 01:32:27;;;;;;;7.05;5.10;;;;;;;2.19;51.76;99300.31;7712311;32;40493;-86
2023/03/12 01:36:46;;;;;;;6.22;4.97;;;;;;;2.32;51.94;99299.34;7712290;32;37897;-86
2023/03/12 01:41:02;;;;;;;7.75;5.30;;;;;;;1.96;53.08;99304.56;7712709;32;36338;-86
2023/03/12 01:46:10;;;;;;;8.05;5.40;;;;;;;2.07;52.34;99316.44;7712331;32;39252;-86
2023/03/12 01:50:27;;;;;;;7.70;5.03;;;;;;;2.17;51.00;99332.03;7658552;32;40786;-86
2023/03/12 01:54:45;;;;;;;8.00;5.50;;;;;;;1.84;52.11;99335.97;7698350;32;36659;-86
2023/03/12 01:59:07;;;;;;;10.00;5.32;;;;;;;1.89;52.02;99336.09;7711661;32;37083;-86
2023/03/12 02:03:23;;;;;;;7.43;5.05;;;;;;;1.72;52.26;99327.81;7698002;32;39248;-86
2023/03/12 02:07:40;;;;;;;6.65;4.85;;;;;;;2.13;51.42;99334.34;7711526;32;40525;-86
2023/03/12 02:11:56;;;;;;;6.55;4.85;;;;;;;2.29;51.14;99332.06;7711595;32;37833;-85
2023/03/12 02:16:12;;;;;;;7.80;5.57;;;;;;;2.35;50.72;99340.03;7711781;32;36944;-86
2023/03/12 02:21:08;;;;;;;8.05;5.45;;;;;;;2.27;50.67;99355.69;7711540;32;39258;-86
2023/03/12 02:25:35;;;;;;;10.02;5.05;;;;;;;2.18;51.02;99366.75;7705676;32;40817;-85
2023/03/12 02:29:51;;;;;;;7.22;5.43;;;;;;;2.21;51.33;99369.00;7711483;32;38268;-85
2023/03/12 02:34:08;;;;;;;7.95;5.37;;;;;;;2.24;51.38;99368.56;7711889;32;36907;-85
2023/03/12 02:38:45;;;;;;;7.53;5.40;;;;;;;2.04;52.22;99378.75;7711720;32;39411;-86
2023/03/12 02:43:04;;;;;;;7.32;5.57;;;;;;;1.28;54.61;99381.63;7680104;32;40069;-86
2023/03/12 02:47:21;;;;;;;9.27;5.82;;;;;;;2.07;52.46;99383.69;7711585;32;37820;-86
2023/03/12 02:51:38;;;;;;;9.50;6.12;;;;;;;2.24;52.17;99387.38;7697602;32;36959;-86
2023/03/12 02:55:54;;;;;;;8.57;5.15;;;;;;;2.38;51.64;99379.09;7697510;32;40063;-86
2023/03/12 03:00:14;;;;;;;8.48;5.45;;;;;;;2.30;51.53;99380.25;7697477;32;40711;-86
2023/03/12 03:04:30;;;;;;;8.95;5.87;;;;;;;2.31;51.41;99384.59;7711152;32;37869;-85
2023/03/12 03:08:47;;;;;;;7.53;4.97;;;;;;;2.08;51.84;99385.28;7711096;32;37026;-86
2023/03/12 03:13:03;;;;;;;10.18;5.85;;;;;;;2.15;51.45;99391.41;7710013;32;39339;-86
2023/03/12 03:17:22;;;;;;;7.28;5.62;;;;;;;2.02;52.38;99396.97;7683038;32;39770;-85
2023/03/12 03:21:38;;;;;;;9.32;6.15;;;;;;;1.75;53.34;99413.38;7683904;32;38015;-85
2023/03/12 03:25:55;;;;;;;10.70;6.65;;;;;;;1.85;53.27;99420.94;7684162;32;36887;-86
2023/03/12 03:30:11;;;;;;;7.65;5.70;;;;;;;1.97;53.01;99419.16;7684162;32;39294;-85
2023/03/12 03:34:28;;;;;;;7.55;5.55;;;;;;;1.92;52.95;99418.19;7684370;32;39999;-85
2023/03/12 03:38:48;;;;;;;13.30;6.32;;;;;;;1.96;53.20;99435.50;7684309;32;38655;-86
2023/03/12 03:43:04;;;;;;;10.85;6.30;;;;;;;1.76;53.77;99438.38;7683989;32;37079;-86
2023/03/12 03:47:21;;;;;;;8.20;5.95;;;;;;;1.90;53.22;99452.50;7683976;32;40041;-86
2023/03/12 03:51:37;;;;;;;11.27;6.82;;;;;;;1.60;54.23;99455.91;7683894;32;39651;-86
2023/03/12 03:55:53;;;;;;;9.82;5.80;;;;;;;1.54;54.94;99456.81;7683755;32;37507;-85
2023/03/12 04:00:12;;;;;;;8.15;5.87;;;;;;;1.53;55.11;99484.72;7683820;32;36918;-86
2023/03/12 04:04:28;;;;;;;10.38;6.57;;;;;;;1.78;54.28;99476.66;7671548;32;39202;-86
2023/03/12 04:08:44;;;;;;;12.18;6.50;;;;;;;1.81;53.91;99493.16;7683785;32;40123;-86
2023/03/12 04:13:00;;;;;;;10.57;7.07;;;;;;;1.88;53.50;99504.66;7683146;32;37804;-85
2023/03/12 04:17:17;;;;;;;16.15;9.55;;;;;;;1.86;53.25;99504.06;7698352;32;37757;-86
2023/03/12 04:21:33;;;;;;;15.80;8.10;;;;;;;1.80;53.54;99499.56;7709885;32;38924;-86
2023/03/12 04:25:49;;;;;;;15.02;7.80;;;;;;;1.70;53.99;99515.38;7712895;32;39511;-86
2023/03/12 04:30:06;;;;;;;12.32;7.55;;;;;;;1.69;54.06;99511.00;7712558;32;38596;-86
2023/03/12 04:34:23;;;;;;;11.77;7.40;;;;;;;1.52;54.29;99515.31;7713074;32;36913;-87
2023/03/12 04:38:39;;;;;;;12.13;7.68;;;;;;;1.54;54.50;99521.31;7712726;32;39974;-86
2023/03/12 04:42:55;;;;;;;14.15;8.05;;;;;;;1.59;54.31;99519.59;7712934;32;40035;-86
2023/03/12 04:47:11;;;;;;;13.10;7.18;;;;;;;1.40;54.79;99529.47;7712619;32;37477;-86
2023/03/12 04:51:28;;;;;;;12.18;7.97;;;;;;;1.47;54.51;99530.22;7712890;32;37667;-86
2023/03/12 04:55:45;;;;;;;12.10;7.47;;;;;;;1.35;55.01;99531.16;7712439;32;40054;-87
2023/03/12 05:00:01;;;;;;;13.30;7.72;;;;;;;1.32;55.21;99543.16;7712664;32;40100;-86
2023/03/12 05:04:18;;;;;;;10.85;7.57;;;;;;;1.26;55.37;99550.22;7700246;32;38481;-86
2023/03/12 05:08:34;;;;;;;13.27;7.30;;;;;;;1.45;54.96;99552.97;7712650;32;37800;-84
2023/03/12 05:12:50;;;;;;;10.88;7.55;;;;;;;1.57;54.70;99563.84;7712439;32;39072;-86
2023/03/12 05:17:07;;;;;;;12.88;7.85;;;;;;;1.50;54.83;99567.41;7711932;32;40886;-86
2023/03/12 05:21:23;;;;;;;11.52;7.35;;;;;;;1.30;55.25;99561.34;7712365;32;38150;-86
2023/03/12 05:25:40;;;;;;;14.65;8.77;;;;;;;1.29;55.82;99562.38;7712166;32;36733;-86
2023/03/12 05:29:56;;;;;;;11.35;7.80;;;;;;;1.35;55.57;99569.56;7712244;32;39352;-86
2023/03/12 05:34:13;;;;;;;12.27;7.87;;;;;;;1.47;54.97;99577.78;7711431;32;40143;-86
2023/03/12 05:38:29;;;;;;;11.32;8.40;;;;;;;1.74;54.28;99591.81;7712307;32;37495;-86
2023/03/12 05:42:46;;;;;;;13.25;8.80;;;;;;;1.64;54.38;99597.69;7712289;32;37733;-85
2023/03/12 05:47:02;;;;;;;13.27;8.43;;;;;;;1.62;54.54;99613.22;7712173;32;40111;-89
2023/03/12 05:51:19;;;;;;;13.35;8.25;;;;;;;1.80;53.85;99608.94;7711962;32;40805;-87
2023/03/12 05:55:37;;;;;;;12.65;7.70;;;;;;;1.87;53.23;99621.28;7685967;32;37543;-75
2023/03/12 05:59:53;;;;;;;12.25;7.15;;;;;;;2.22;58.53;99634.22;7711857;32;36916;-68
2023/03/12 06:04:09;;;;;;;16.95;8.80;;;;;;;2.62;65.13;99643.78;7711236;32;38935;-72
2023/03/12 06:08:26;;;;;;;13.88;8.32;;;;;;;3.07;58.37;99646.19;7712072;32;39969;-83
2023/03/12 06:12:42;;;;;;;13.73;8.07;;;;;;;3.15;52.48;99653.94;7711254;32;37922;-87
2023/03/12 06:16:58;;;;;;;14.63;8.10;;;;;;;2.71;50.60;99666.69;7711491;32;36944;-88
2023/03/12 06:21:17;;;;;;;12.85;7.35;;;;;;;2.29;51.37;99676.41;7710782;32;39260;-88
2023/03/12 06:25:33;;;;;;;13.48;8.10;;;;;;;2.38;51.51;99691.19;7697545;32;38991;-87
2023/03/12 06:29:50;;;;;;;12.40;7.93;;;;;;;2.48;51.71;99690.72;7697796;32;37450;-87
2023/03/12 06:34:07;;;;;;;16.92;8.88;;;;;;;2.22;51.80;99701.47;7708809;32;37093;-89
2023/03/12 06:38:23;;;;;;;15.18;9.07;;;;;;;2.66;50.58;99700.69;7709523;32;39298;-88
2023/03/12 06:42:40;;;;;;;12.75;8.35;;;;;;;2.76;50.56;99703.69;7696508;32;40864;-86
2023/03/12 06:46:56;;;;;;;13.05;7.93;;;;;;;2.53;50.95;99707.84;7709585;32;38841;-84
2023/03/12 06:51:14;;;;;;;12.57;8.05;;;;;;;2.46;51.16;99714.34;7711586;32;37193;-85
2023/03/12 06:55:31;;;;;;;13.45;8.00;;;;;;;2.14;52.23;99719.75;7711877;32;38519;-85
2023/03/12 06:59:47;;;;;;;11.10;7.15;;;;;;;2.19;52.27;99720.75;7711532;32;39704;-84
2023/03/12 07:04:05;;;;;;;11.70;7.78;;;;;;;2.72;50.89;99726.72;7710792;32;38676;-85
2023/03/12 07:08:22;;;;;;;15.00;7.55;;;;;;;2.52;51.18;99724.19;7711379;32;36686;-85
2023/03/12 07:12:38;;;;;;;13.52;8.35;;;;;;;2.34;51.97;99733.06;7711324;32;39277;-89
2023/03/12 07:16:55;;;;;;;12.02;8.02;;;;;;;2.75;52.39;99745.12;7711174;32;39932;-88
2023/03/12 07:21:11;;;;;;;11.68;7.93;;;;;;;2.23;52.34;99754.25;7710560;32;37585;-89
2023/03/12 07:25:28;;;;;;;14.90;7.90;;;;;;;2.74;51.14;99759.63;7706299;32;37452;-90
2023/03/12 07:29:44;;;;;;;11.57;7.37;;;;;;;2.99;51.08;99751.53;7696152;32;40031;-91
2023/03/12 07:34:01;;;;;;;14.87;7.30;;;;;;;2.80;51.06;99764.13;7687312;32;39880;-89
2023/03/12 07:38:18;;;;;;;12.23;7.53;;;;;;;3.39;49.77;99751.91;7683844;32;37803;-87
2023/03/12 07:42:34;;;;;;;16.58;7.32;;;;;;;4.03;48.26;99753.38;7684138;32;37693;-89
2023/03/12 07:46:51;;;;;;;11.27;7.32;;;;;;;4.02;48.59;99762.50;7701991;32;39202;-89
2023/03/12 07:51:07;;;;;;;13.10;7.90;;;;;;;3.81;48.01;99753.88;7708917;32;39697;-88
2023/03/12 07:55:24;;;;;;;13.00;7.97;;;;;;;3.56;49.41;99762.06;7710146;32;37766;-84
2023/03/12 07:59:40;;;;;;;12.63;8.07;;;;;;;3.82;48.26;99757.41;7710177;32;37072;-86
2023/03/12 08:03:57;;;;;;;11.68;7.68;;;;;;;3.90;48.48;99757.91;7710427;32;39201;-87
2023/03/12 08:08:14;;;;;;;12.52;7.55;;;;;;;3.93;48.49;99767.38;7703194;32;230114;-86
2023/03/12 08:12:30;;;;;;;12.60;7.37;;;;;;;2.98;49.31;99783.03;7710391;32;38354;-86
2023/03/12 08:16:46;;;;;;;12.82;7.62;;;;;;;3.11;49.20;99779.37;7708387;32;37100;-86
2023/03/12 08:21:03;;;;;;;10.90;6.68;;;;;;;3.84;48.49;99771.47;7709234;32;40218;-86
2023/03/12 08:25:20;;;;;;;11.98;7.12;;;;;;;3.80;46.98;99770.28;7692723;32;40557;-86
2023/03/12 08:29:36;;;;;;;9.60;6.68;;;;;;;4.60;47.67;99778.00;7709355;32;37828;-87
2023/03/12 08:33:52;;;;;;;11.27;6.97;;;;;;;5.10;45.13;99775.94;7708791;32;36922;-87
2023/03/12 08:38:09;;;;;;;11.20;6.40;;;;;;;5.23;44.26;99779.22;7708605;32;40116;-87
2023/03/12 08:42:25;;;;;;;9.88;6.03;;;;;;;4.94;46.45;99774.78;7708349;32;40919;-88
2023/03/12 08:46:41;;;;;;;9.75;6.07;;;;;;;5.32;42.64;99785.06;7708108;32;39029;-87
2023/03/12 08:50:59;;;;;;;11.32;6.62;;;;;;;4.82;42.89;99791.78;7709764;32;36544;-87
2023/03/12 08:55:15;;;;;;;9.85;5.37;;;;;;;5.35;42.79;99783.78;7709348;32;39390;-87
2023/03/12 08:59:31;;;;;;;9.80;5.65;;;;;;;4.79;41.19;99781.44;7709384;32;39597;-87
2023/03/12 09:03:49;;;;;;;8.85;5.85;;;;;;;4.73;41.62;99776.97;7709161;32;38328;-87
2023/03/12 09:08:06;;;;;;;7.97;5.05;;;;;;;5.35;42.27;99776.50;7709208;32;36281;-87
2023/03/12 09:12:23;;;;;;;6.53;5.12;;;;;;;5.98;41.01;99774.78;7712231;32;40301;-87
2023/03/12 09:16:39;;;;;;;7.68;4.60;;;;;;;6.32;38.88;99776.78;7699146;32;40660;-87
2023/03/12 09:20:56;;;;;;;6.97;4.55;;;;;;;6.53;36.44;99772.50;7712671;32;38413;-87
2023/03/12 09:25:16;;;;;;;8.40;4.68;;;;;;;6.96;35.61;99765.59;7699488;32;37633;-88
2023/03/12 09:29:32;;;;;;;8.05;4.57;;;;;;;7.41;35.63;99767.31;7712654;32;39266;-88
2023/03/12 09:33:49;;;;;;;7.55;4.60;;;;;;;7.44;34.83;99764.09;7712497;32;40834;-87
2023/03/12 09:38:06;;;;;;;5.80;4.10;;;;;;;7.11;35.10;99762.31;7712487;32;38448;-88
2023/03/12 09:42:32;;;;;;;8.32;4.60;;;;;;;7.50;33.89;99754.97;7712623;32;37031;-87
2023/03/12 09:46:51;;;;;;;13.07;4.40;;;;;;;8.26;33.87;99756.87;7712530;32;40071;-87
2023/03/12 09:51:27;;;;;;;9.02;4.80;;;;;;;8.56;34.70;99754.72;7712421;32;39963;-88
2023/03/12 09:55:46;;;;;;;11.15;4.90;;;;;;;8.76;33.33;99743.16;7712372;32;37882;-87
2023/03/12 10:00:06;;;;;;;6.55;3.95;;;;;;;8.69;33.83;99750.72;7699161;32;38276;-87
2023/03/12 10:04:34;;;;;;;8.60;4.40;;;;;;;8.57;32.24;99746.31;7698988;32;40032;-87
2023/03/12 10:09:41;;;;;;;7.60;4.03;;;;;;;8.42;33.37;99743.44;7711903;32;40224;-87
2023/03/12 10:14:21;;;;;;;6.32;3.90;;;;;;;9.26;31.95;99747.31;7711922;32;37560;-87
2023/03/12 10:19:06;;;;;;;5.85;3.50;;;;;;;8.38;31.11;99747.72;7688588;32;36934;-87
2023/03/12 10:23:58;;;;;;;8.02;4.28;;;;;;;8.60;30.63;99740.34;7711939;32;39908;-87
2023/03/12 10:28:32;;;;;;;6.72;3.90;;;;;;;7.96;34.03;99748.41;7710279;32;40756;-87
2023/03/12 10:32:53;;;;;;;5.75;4.05;;;;;;;7.45;32.40;99751.34;7711902;32;37950;-87
2023/03/12 10:37:15;;;;;;;8.27;4.03;;;;;;;7.09;33.48;99761.75;7698574;32;36840;-87
2023/03/12 10:41:32;;;;;;;6.70;4.05;;;;;;;7.84;34.46;99762.94;7711941;32;38920;-87
2023/03/12 10:45:52;;;;;;;5.57;3.75;;;;;;;8.00;32.88;99757.69;7711897;32;39439;-87
2023/03/12 10:50:33;;;;;;;7.97;4.10;;;;;;;7.52;32.50;99766.38;7711659;32;37803;-88
2023/03/12 10:54:51;;;;;;;4.22;3.08;;;;;;;7.44;32.26;99782.28;7711681;32;37338;-87
2023/03/12 10:59:19;;;;;;;4.20;3.40;;;;;;;7.90;30.63;99766.56;7711815;32;39024;-88
2023/03/12 11:03:36;;;;;;;5.18;3.45;;;;;;;8.57;29.65;99768.03;7699405;32;40562;-87
2023/03/12 11:07:53;;;;;;;4.87;3.17;;;;;;;8.57;28.16;99765.34;7711523;32;37784;-87
2023/03/12 11:12:24;;;;;;;4.90;3.30;;;;;;;8.73;28.71;99771.69;7711581;32;37524;-87
2023/03/12 11:16:41;;;;;;;8.75;3.30;;;;;;;9.49;28.29;99762.38;7711420;32;39224;-87
2023/03/12 11:21:09;;;;;;;6.32;3.15;;;;;;;9.90;27.72;99757.09;7711391;32;39948;-88
2023/03/12 11:25:30;;;;;;;5.10;3.10;;;;;;;9.77;27.61;99768.47;7711278;32;37560;-87
2023/03/12 11:29:49;;;;;;;4.35;2.95;;;;;;;9.27;28.36;99770.69;7711428;32;36930;-87
2023/03/12 11:34:13;;;;;;;6.47;3.10;;;;;;;9.87;26.46;99768.50;7710450;32;39074;-87
2023/03/12 11:39:09;;;;;;;4.78;3.00;;;;;;;9.09;27.75;99768.41;7711272;32;40754;-87
2023/03/12 11:43:37;;;;;;;6.87;3.65;;;;;;;9.29;27.62;99771.25;7669316;32;38343;-88
2023/03/12 11:48:17;;;;;;;4.22;3.28;;;;;;;9.31;28.24;99765.53;7711078;32;36936;-87
2023/03/12 11:52:47;;;;;;;7.90;3.10;;;;;;;9.14;28.30;99760.28;7710950;32;39066;-88
2023/03/12 11:57:18;;;;;;;6.15;3.33;;;;;;;9.97;26.30;99754.09;7710925;32;40083;-88
2023/03/12 12:02:11;;;;;;;4.55;2.92;;;;;;;9.29;27.11;99760.34;7711004;32;37955;-88
2023/03/12 12:07:05;;;;;;;6.37;3.22;;;;;;;10.64;26.76;99748.75;7710763;32;37542;-87
2023/03/12 12:11:33;;;;;;;4.12;2.75;;;;;;;10.48;25.30;99734.31;7710604;32;38926;-88
2023/03/12 12:16:08;;;;;;;4.80;2.70;;;;;;;11.16;22.72;99733.97;7710273;32;40996;-88
2023/03/12 12:20:35;;;;;;;5.32;3.42;;;;;;;9.90;23.28;99731.72;7710339;32;38688;-88
2023/03/12 12:25:00;;;;;;;3.97;2.83;;;;;;;10.36;23.94;99737.28;7710301;32;37080;-88
2023/03/12 12:29:24;;;;;;;4.82;3.05;;;;;;;10.55;23.18;99725.84;7710147;32;39902;-88
2023/03/12 12:34:02;;;;;;;4.78;3.12;;;;;;;10.30;23.24;99732.91;7709941;32;39877;-88
2023/03/12 12:38:37;;;;;;;5.65;3.03;;;;;;;9.06;23.80;99736.31;7710146;32;38005;-87
2023/03/12 12:43:00;;;;;;;6.78;3.58;;;;;;;10.12;23.43;99723.34;7710080;32;36935;-88
2023/03/12 12:47:31;;;;;;;5.40;3.05;;;;;;;10.41;23.18;99726.41;7699931;32;39377;-88
2023/03/12 12:52:00;;;;;;;6.20;3.25;;;;;;;11.20;22.31;99720.56;7700361;32;40802;-88
2023/03/12 12:56:37;;;;;;;7.55;3.15;;;;;;;11.48;20.84;99724.56;7700642;32;37866;-88
2023/03/12 13:00:59;;;;;;;3.72;2.60;;;;;;;11.67;21.16;99721.22;7713810;32;35315;-88
2023/03/12 13:05:27;;;;;;;5.53;3.10;;;;;;;11.04;19.76;99725.25;7699783;32;38334;-88
2023/03/12 13:09:46;;;;;;;4.78;2.80;;;;;;;11.38;21.44;99725.44;7699662;32;40034;-89
2023/03/12 13:14:03;;;;;;;4.78;2.92;;;;;;;12.34;19.69;99719.72;7699329;32;38621;-89
2023/03/12 13:18:25;;;;;;;3.85;2.85;;;;;;;11.98;20.02;99722.69;7712817;32;36673;-90
2023/03/12 13:23:11;;;;;;;3.87;2.45;;;;;;;11.84;21.09;99727.13;7699556;32;40586;-88
2023/03/12 13:27:41;;;;;;;3.70;2.50;;;;;;;12.39;19.72;99716.94;7712888;32;39713;-88
2023/03/12 13:31:57;;;;;;;4.15;2.62;;;;;;;11.67;19.34;99727.47;7698877;32;37534;-89
2023/03/12 13:36:22;;;;;;;4.90;2.50;;;;;;;11.63;19.29;99727.22;7712951;32;35858;-89
2023/03/12 13:41:00;;;;;;;4.65;2.92;;;;;;;11.18;18.22;99731.75;7712946;32;40021;-89
2023/03/12 13:45:24;;;;;;;4.82;2.70;;;;;;;11.92;18.36;99729.28;7701285;32;39569;-89
2023/03/12 13:49:46;;;;;;;;;;;;;;;11.98;17.58;99744.53;7712849;32;37878;-89
2023/03/12 13:54:03;;;;;;;7.43;2.78;;;;;;;11.52;19.77;99742.03;7712481;32;36692;-89
2023/03/12 13:58:22;;;;;;;4.57;2.75;;;;;;;11.83;20.01;99730.94;7712002;32;38985;-89
2023/03/12 14:02:51;;;;;;;7.20;2.90;;;;;;;12.15;19.05;99724.22;7698890;32;39921;-89
2023/03/12 14:07:44;;;;;;;5.18;2.60;;;;;;;12.09;19.05;99725.34;7699613;32;37843;-89
2023/03/12 14:12:03;;;;;;;3.85;2.50;;;;;;;11.70;19.54;99734.31;7712289;32;36885;-89
2023/03/12 14:16:39;;;;;;;4.25;2.40;;;;;;;11.78;19.93;99728.22;7712007;32;39300;-89
2023/03/12 14:21:00;;;;;;;4.05;2.53;;;;;;;12.31;19.51;99725.75;7712225;32;40187;-89
2023/03/12 14:25:36;;;;;;;4.45;2.75;;;;;;;12.37;18.71;99732.81;7712121;32;37884;-89
2023/03/12 14:30:19;;;;;;;3.53;2.35;;;;;;;12.01;19.21;99732.25;7712066;32;37708;-88
2023/03/12 14:34:45;;;;;;;2.97;2.03;;;;;;;11.32;18.89;99737.44;7700379;32;38728;-88
2023/03/12 14:39:31;;;;;;;5.80;2.53;;;;;;;11.04;18.88;99731.53;7699016;32;40047;-88
2023/03/12 14:43:51;;;;;;;5.68;2.40;;;;;;;10.97;19.70;99727.44;7696659;32;38545;-88
2023/03/12 14:48:10;;;;;;;4.43;2.50;;;;;;;11.46;19.44;99724.03;7711927;32;37458;-88
2023/03/12 14:52:29;;;;;;;3.10;2.20;;;;;;;11.08;18.96;99737.25;7698222;32;39318;-88
2023/03/12 14:56:46;;;;;;;2.67;1.92;;;;;;;11.51;18.72;99728.66;7697930;32;38908;-88
2023/03/12 15:01:05;;;;;;;3.22;2.22;;;;;;;11.51;19.67;99745.03;7711966;32;38634;-88
2023/03/12 15:05:22;;;;;;;5.87;2.78;;;;;;;11.56;19.46;99740.38;7711735;32;36625;-88
2023/03/12 15:09:42;;;;;;;3.72;2.28;;;;;;;11.39;19.02;99743.44;7711090;32;38890;-87
2023/03/12 15:14:07;;;;;;;6.03;2.60;;;;;;;11.57;19.11;99743.91;7698007;32;39964;-87
2023/03/12 15:18:29;;;;;;;7.07;3.83;;;;;;;10.59;20.64;99746.00;7711316;32;38762;-87
2023/03/12 15:22:46;;;;;;;4.95;2.90;;;;;;;10.84;20.88;99746.00;7711547;32;36671;-88
2023/03/12 15:27:24;;;;;;;4.62;2.67;;;;;;;10.66;20.02;99743.84;7697745;32;40119;-87
2023/03/12 15:31:45;;;;;;;4.55;3.00;;;;;;;10.82;20.09;99745.47;7711344;32;40794;-87
2023/03/12 15:36:14;;;;;;;4.90;2.70;;;;;;;10.01;20.51;99752.47;7697707;32;38363;-87
2023/03/12 15:40:31;;;;;;;3.62;2.65;;;;;;;11.10;20.62;99745.97;7711236;32;37871;-87
2023/03/12 15:44:50;;;;;;;3.80;2.50;;;;;;;10.83;21.01;99751.72;7697479;32;40091;-87
2023/03/12 15:49:17;;;;;;;5.80;2.60;;;;;;;10.81;21.37;99751.19;7697586;32;40770;-87
2023/03/12 15:53:34;;;;;;;6.22;2.62;;;;;;;10.73;21.60;99754.47;7697912;32;38001;-86
2023/03/12 15:57:55;;;;;;;5.12;3.00;;;;;;;9.82;22.33;99754.06;7710926;32;36907;-87
2023/03/12 16:02:12;;;;;;;8.07;3.40;;;;;;;9.97;23.41;99756.84;7710867;32;38980;-87
2023/03/12 16:06:28;;;;;;;9.07;4.32;;;;;;;9.97;22.38;99762.28;7710703;32;40058;-87
2023/03/12 16:10:45;;;;;;;7.55;3.50;;;;;;;10.25;22.29;99757.44;7710554;32;37847;-87
2023/03/12 16:15:02;;;;;;;5.60;3.22;;;;;;;9.59;22.08;99772.50;7696610;32;37037;-87
2023/03/12 16:19:22;;;;;;;9.07;3.83;;;;;;;9.73;23.11;99770.91;7710178;32;40103;-87
2023/03/12 16:23:38;;;;;;;7.50;3.42;;;;;;;9.70;22.62;99779.59;7710243;32;39908;-87
2023/03/12 16:27:56;;;;;;;5.45;2.80;;;;;;;10.38;22.66;99772.44;7710048;32;37742;-87
2023/03/12 16:32:16;;;;;;;5.87;3.15;;;;;;;11.89;20.44;99768.06;7709886;32;37910;-87
2023/03/12 16:36:32;;;;;;;4.15;2.83;;;;;;;12.09;20.56;99771.81;7696322;32;40034;-87
2023/03/12 16:40:51;;;;;;;5.47;2.92;;;;;;;11.52;22.13;99780.25;7709881;32;39334;-87
2023/03/12 16:45:13;;;;;;;5.47;3.17;;;;;;;10.93;23.46;99783.62;7695818;32;37529;-87
2023/03/12 16:49:30;;;;;;;5.68;3.05;;;;;;;10.01;25.04;99790.59;7696099;32;37075;-87
2023/03/12 16:53:47;;;;;;;5.12;3.35;;;;;;;10.03;24.77;99799.31;7709372;32;40106;-87
2023/03/12 16:58:22;;;;;;;5.28;2.97;;;;;;;9.90;25.00;99795.22;7697723;32;39825;-86
2023/03/12 17:02:38;;;;;;;5.70;3.10;;;;;;;9.74;25.04;99802.50;7695803;32;37862;-86
2023/03/12 17:06:54;;;;;;;8.25;3.83;;;;;;;9.75;24.81;99804.13;7709142;32;36872;-87
2023/03/12 17:11:17;;;;;;;8.55;4.32;;;;;;;9.64;25.44;99797.03;7709073;32;39296;-86
2023/03/12 17:15:33;;;;;;;13.48;6.57;;;;;;;9.49;25.66;99797.75;7695284;32;39723;-86
2023/03/12 17:19:51;;;;;;;19.12;10.02;;;;;;;8.92;24.62;99806.66;7708725;32;37945;-87
2023/03/12 17:24:09;;;;;;;17.55;9.02;;;;;;;9.23;25.35;99813.13;7708725;32;37850;-87
2023/03/12 17:28:25;;;;;;;16.73;7.50;;;;;;;9.17;26.37;99809.53;7708778;32;38507;-87
2023/03/12 17:32:41;;;;;;;17.42;7.68;;;;;;;9.00;28.12;99815.12;7711324;32;39706;-87
2023/03/12 17:36:58;;;;;;;15.40;8.30;;;;;;;8.93;29.14;99814.50;7712424;32;37913;-87
2023/03/12 17:41:14;;;;;;;15.30;8.05;;;;;;;8.82;29.86;99805.47;7712559;32;36961;-87
2023/03/12 17:45:42;;;;;;;16.10;7.25;;;;;;;8.64;28.64;99817.56;7712493;32;39980;-87
2023/03/12 17:49:58;;;;;;;12.63;6.10;;;;;;;8.76;28.74;99813.84;7712465;32;41593;-86
2023/03/12 17:54:14;;;;;;;13.38;7.12;;;;;;;8.33;30.41;99810.16;7712318;32;37789;-87
2023/03/12 17:58:30;;;;;;;9.55;5.50;;;;;;;8.25;29.22;99809.53;7712363;32;36962;-87
2023/03/12 18:02:47;;;;;;;11.50;6.28;;;;;;;8.27;28.06;99807.38;7712424;32;40046;-87
2023/03/12 18:07:04;;;;;;;11.02;5.47;;;;;;;8.09;29.09;99810.47;7712151;32;40596;-86
2023/03/12 18:11:20;;;;;;;11.43;5.15;;;;;;;8.26;29.94;99827.50;7712247;32;37804;-87
2023/03/12 18:15:36;;;;;;;10.55;5.80;;;;;;;8.01;31.36;99828.00;7711856;32;37031;-86
2023/03/12 18:19:53;;;;;;;12.95;6.07;;;;;;;7.90;31.29;99834.41;7712436;32;37559;-86
2023/03/12 18:24:09;;;;;;;12.98;5.90;;;;;;;7.89;30.91;99843.63;7711971;32;40797;-87
2023/03/12 18:28:29;;;;;;;11.48;5.30;;;;;;;7.94;30.91;99851.00;7712101;32;37555;-87
2023/03/12 18:32:45;;;;;;;10.40;5.10;;;;;;;7.65;31.43;99854.72;7711928;32;36690;-87
2023/03/12 18:37:04;;;;;;;8.95;4.25;;;;;;;7.61;31.61;99841.91;7711901;32;39132;-86
2023/03/12 18:41:20;;;;;;;8.32;4.62;;;;;;;7.26;30.82;99852.00;7711744;32;40997;-87
2023/03/12 18:45:41;;;;;;;9.70;4.70;;;;;;;7.25;28.89;99844.94;7711677;32;37778;-87
2023/03/12 18:49:58;;;;;;;11.12;5.03;;;;;;;7.23;29.76;99849.78;7711870;32;37039;-87
2023/03/12 18:54:14;;;;;;;10.40;5.20;;;;;;;7.26;31.61;99843.03;7711674;32;40091;-87
2023/03/12 18:58:31;;;;;;;7.97;4.37;;;;;;;7.09;32.64;99846.59;7711538;32;40748;-87
2023/03/12 19:02:47;;;;;;;8.63;4.43;;;;;;;6.91;33.21;99827.84;7711471;32;37898;-87
2023/03/12 19:07:04;;;;;;;7.50;3.75;;;;;;;6.79;33.18;99829.84;7711543;32;37597;-87
2023/03/12 19:11:20;;;;;;;7.07;3.62;;;;;;;6.60;32.83;99840.06;7711540;32;39226;-87
2023/03/12 19:15:38;;;;;;;7.80;3.80;;;;;;;6.57;32.38;99844.94;7711076;32;39966;-87
2023/03/12 19:19:54;;;;;;;5.72;3.37;;;;;;;6.56;32.61;99853.28;7711314;32;38043;-87
2023/03/12 19:24:11;;;;;;;5.93;3.58;;;;;;;6.62;31.30;99857.72;7711377;32;36886;-87
2023/03/12 19:28:27;;;;;;;6.07;3.60;;;;;;;6.52;31.52;99873.78;7711584;32;37615;-87
2023/03/12 19:32:43;;;;;;;6.82;3.83;;;;;;;6.34;33.77;99878.34;7711263;32;39632;-87
2023/03/12 19:36:59;;;;;;;12.13;6.10;;;;;;;6.45;32.84;99875.81;7711081;32;38427;-87
2023/03/12 19:41:16;;;;;;;12.55;6.37;;;;;;;6.44;33.67;99879.63;7711167;32;37414;-87
2023/03/12 19:45:34;;;;;;;14.35;5.78;;;;;;;6.32;34.88;99875.06;7711082;32;39951;-87
2023/03/12 19:49:51;;;;;;;9.68;5.37;;;;;;;6.16;35.50;99882.06;7710936;32;38910;-87
2023/03/12 19:54:07;;;;;;;12.37;7.20;;;;;;;6.11;35.03;99889.28;7709949;32;38644;-87
2023/03/12 19:58:23;;;;;;;11.77;5.97;;;;;;;6.28;35.27;99883.91;7710800;32;37742;-87
2023/03/12 20:02:40;;;;;;;13.25;7.25;;;;;;;6.04;36.66;99891.25;7710830;32;40456;-87
2023/03/12 20:06:56;;;;;;;12.73;7.03;;;;;;;6.09;36.31;99885.97;7696825;32;40829;-87
2023/03/12 20:11:12;;;;;;;10.80;6.43;;;;;;;5.99;36.06;99892.81;7710417;32;37808;-87
2023/03/12 20:15:29;;;;;;;12.52;7.25;;;;;;;5.96;36.34;99884.34;7710055;32;36946;-87
2023/03/12 20:19:45;;;;;;;12.80;7.18;;;;;;;5.57;37.01;99887.56;7696410;32;39368;-87
2023/03/12 20:24:01;;;;;;;15.77;9.27;;;;;;;5.78;37.48;99878.00;7696394;32;39590;-86
2023/03/12 20:28:18;;;;;;;9.18;5.43;;;;;;;5.80;36.33;99886.72;7696414;32;38455;-86
2023/03/12 20:32:34;;;;;;;5.60;4.25;;;;;;;5.68;35.24;99871.56;7696358;32;37737;-86